createdAt,value
2023-02-18T00:01:13.586Z,1.92
2023-02-18T00:03:41.463Z,2.35
2023-02-18T00:06:20.430Z,2.20
2023-02-18T00:08:48.039Z,1.95
2023-02-18T00:11:16.327Z,2.20
2023-02-18T00:13:43.211Z,2.08
2023-02-18T00:16:12.552Z,2.20
2023-02-18T00:18:40.200Z,2.03
2023-02-18T00:21:08.155Z,2.40
2023-02-18T00:23:34.982Z,2.10
2023-02-18T00:26:07.985Z,2.25
2023-02-18T00:28:35.604Z,2.50
2023-02-18T00:31:10.487Z,2.75
2023-02-18T00:33:37.905Z,2.28
2023-02-18T00:36:07.168Z,2.20
2023-02-18T00:38:34.411Z,2.33
2023-02-18T00:41:01.773Z,2.53
2023-02-18T00:43:29.006Z,2.10
2023-02-18T00:45:55.747Z,2.10
2023-02-18T00:48:22.656Z,2.33
2023-02-18T00:50:49.390Z,2.10
2023-02-18T00:53:16.156Z,2.25
2023-02-18T00:55:44.496Z,1.70
2023-02-18T00:58:11.637Z,1.98
2023-02-18T01:00:38.648Z,2.30
2023-02-18T01:03:09.122Z,2.10
2023-02-18T01:05:37.054Z,1.98
2023-02-18T01:08:04.596Z,2.08
2023-02-18T01:10:31.468Z,1.90
2023-02-18T01:12:58.638Z,2.40
2023-02-18T01:15:25.546Z,2.35
2023-02-18T01:17:52.309Z,2.33
2023-02-18T01:20:20.233Z,2.13
2023-02-18T01:22:47.054Z,2.28
2023-02-18T01:25:14.648Z,2.20
2023-02-18T01:27:42.095Z,2.03
2023-02-18T01:30:12.437Z,2.35
2023-02-18T01:32:39.257Z,2.22
2023-02-18T01:35:06.996Z,2.25
2023-02-18T01:37:33.883Z,2.05
2023-02-18T01:40:00.772Z,2.20
2023-02-18T01:42:29.463Z,2.08
2023-02-18T01:45:34.221Z,2.40
2023-02-18T01:48:25.009Z,2.28
2023-02-18T01:50:57.338Z,1.92
2023-02-18T01:53:35.261Z,2.03
2023-02-18T01:56:05.211Z,2.10
2023-02-18T01:58:32.821Z,1.90
2023-02-18T02:00:59.716Z,1.88
2023-02-18T02:03:26.489Z,1.70
2023-02-18T02:05:53.229Z,2.00
2023-02-18T02:08:19.999Z,1.77
2023-02-18T02:11:19.510Z,1.77
2023-02-18T02:14:07.751Z,1.80
2023-02-18T02:16:39.020Z,1.60
2023-02-18T02:19:36.009Z,1.50
2023-02-18T02:22:21.522Z,1.73
2023-02-18T02:25:14.497Z,1.35
2023-02-18T02:28:10.601Z,1.50
2023-02-18T02:30:44.670Z,1.40
2023-02-18T02:33:50.087Z,1.50
2023-02-18T02:36:28.875Z,1.45
2023-02-18T02:39:07.621Z,1.63
2023-02-18T02:41:40.123Z,1.40
2023-02-18T02:44:24.975Z,1.63
2023-02-18T02:47:01.635Z,1.52
2023-02-18T02:49:32.597Z,1.45
2023-02-18T02:52:07.646Z,1.50
2023-02-18T02:54:34.420Z,1.20
2023-02-18T02:57:10.204Z,1.40
2023-02-18T02:59:41.056Z,1.30
2023-02-18T03:02:27.392Z,1.45
2023-02-18T03:05:15.249Z,1.50
2023-02-18T03:08:20.620Z,1.40
2023-02-18T03:11:04.469Z,1.30
2023-02-18T03:13:34.212Z,1.30
2023-02-18T03:16:32.290Z,1.42
2023-02-18T03:19:16.047Z,1.40
2023-02-18T03:21:49.924Z,1.50
2023-02-18T03:24:30.605Z,1.50
2023-02-18T03:27:04.370Z,1.48
2023-02-18T03:29:31.668Z,1.75
2023-02-18T03:32:02.928Z,1.75
2023-02-18T03:34:32.999Z,1.50
2023-02-18T03:37:01.841Z,1.52
2023-02-18T03:39:32.562Z,1.75
2023-02-18T03:41:59.773Z,1.50
2023-02-18T03:44:26.579Z,1.48
2023-02-18T03:46:54.297Z,1.65
2023-02-18T03:49:21.039Z,1.70
2023-02-18T03:51:47.855Z,1.50
2023-02-18T03:54:15.183Z,1.50
2023-02-18T03:56:42.664Z,1.52
2023-02-18T03:59:09.502Z,1.40
2023-02-18T04:01:36.318Z,1.45
2023-02-18T04:04:03.341Z,1.50
2023-02-18T04:06:30.229Z,1.50
2023-02-18T04:08:57.030Z,1.58
2023-02-18T04:11:23.763Z,1.45
2023-02-18T04:13:50.554Z,1.50
2023-02-18T04:16:17.559Z,1.90
2023-02-18T04:18:44.548Z,1.20
2023-02-18T04:21:11.298Z,1.40
2023-02-18T04:23:38.098Z,1.67
2023-02-18T04:26:04.969Z,1.40
2023-02-18T04:28:31.794Z,1.40
2023-02-18T04:30:58.572Z,1.30
2023-02-18T04:33:25.316Z,1.30
2023-02-18T04:35:52.061Z,1.30
2023-02-18T04:38:18.840Z,1.60
2023-02-18T04:40:45.622Z,1.50
2023-02-18T04:43:12.475Z,1.70
2023-02-18T04:45:39.352Z,1.30
2023-02-18T04:48:06.470Z,1.27
2023-02-18T04:50:33.255Z,1.30
2023-02-18T04:53:00.011Z,1.20
2023-02-18T04:55:26.841Z,1.48
2023-02-18T04:57:53.573Z,1.30
2023-02-18T05:00:20.739Z,1.40
2023-02-18T05:02:47.752Z,1.40
2023-02-18T05:05:14.794Z,1.50
2023-02-18T05:07:42.472Z,1.30
2023-02-18T05:10:11.652Z,1.50
2023-02-18T05:12:38.460Z,1.33
2023-02-18T05:15:05.697Z,1.67
2023-02-18T05:17:32.755Z,1.58
2023-02-18T05:19:59.521Z,1.70
2023-02-18T05:22:26.468Z,1.50
2023-02-18T05:24:53.227Z,1.33
2023-02-18T05:27:20.040Z,1.60
2023-02-18T05:29:46.827Z,1.80
2023-02-18T05:32:13.596Z,1.52
2023-02-18T05:34:40.470Z,1.58
2023-02-18T05:37:07.221Z,1.70
2023-02-18T05:39:33.967Z,1.60
2023-02-18T05:42:00.750Z,1.85
2023-02-18T05:44:30.440Z,1.88
2023-02-18T05:46:59.061Z,1.40
2023-02-18T05:49:26.003Z,1.40
2023-02-18T05:51:52.758Z,1.67
2023-02-18T05:54:19.607Z,1.77
2023-02-18T05:56:46.475Z,2.08
2023-02-18T05:59:13.513Z,1.85
2023-02-18T06:01:40.733Z,2.63
2023-02-18T06:04:07.536Z,2.60
2023-02-18T06:06:35.242Z,2.83
2023-02-18T06:09:02.590Z,2.67
2023-02-18T06:11:29.428Z,2.85
2023-02-18T06:13:56.165Z,2.85
2023-02-18T06:16:23.103Z,2.63
2023-02-18T06:18:50.126Z,2.85
2023-02-18T06:21:16.923Z,3.20
2023-02-18T06:23:43.847Z,3.05
2023-02-18T06:26:10.925Z,3.70
2023-02-18T06:28:38.038Z,3.60
2023-02-18T06:31:05.127Z,3.17
2023-02-18T06:33:31.928Z,3.28
2023-02-18T06:36:03.487Z,3.50
2023-02-18T06:38:30.238Z,3.10
2023-02-18T06:40:56.986Z,3.17
2023-02-18T06:43:23.783Z,2.85
2023-02-18T06:45:50.990Z,3.53
2023-02-18T06:48:17.956Z,3.63
2023-02-18T06:50:44.928Z,3.97
2023-02-18T06:53:12.563Z,3.60
2023-02-18T06:55:40.355Z,3.40
2023-02-18T06:58:07.107Z,3.75
2023-02-18T07:00:33.967Z,4.00
2023-02-18T07:03:00.738Z,3.65
2023-02-18T07:05:27.802Z,4.30
2023-02-18T07:07:54.558Z,3.72
2023-02-18T07:10:21.411Z,4.45
2023-02-18T07:12:48.255Z,3.92
2023-02-18T07:15:15.351Z,4.13
2023-02-18T07:17:42.111Z,4.00
2023-02-18T07:20:09.633Z,4.10
2023-02-18T07:22:36.408Z,4.32
2023-02-18T07:25:03.370Z,3.75
2023-02-18T07:27:30.339Z,4.22
2023-02-18T07:29:57.130Z,3.83
2023-02-18T07:32:24.066Z,3.75
2023-02-18T07:34:53.916Z,4.60
2023-02-18T07:37:20.851Z,4.07
2023-02-18T07:39:47.774Z,3.97
2023-02-18T07:42:15.167Z,4.03
2023-02-18T07:44:42.509Z,3.83
2023-02-18T07:47:12.684Z,3.70
2023-02-18T07:49:39.489Z,4.07
2023-02-18T07:52:06.279Z,3.53
2023-02-18T07:54:33.094Z,4.45
2023-02-18T07:57:31.956Z,4.07
2023-02-18T07:59:58.768Z,4.07
2023-02-18T08:02:25.673Z,5.03
2023-02-18T08:04:52.473Z,3.78
2023-02-18T08:07:22.648Z,4.07
2023-02-18T08:09:50.632Z,4.35
2023-02-18T08:12:17.613Z,4.78
2023-02-18T08:14:44.451Z,4.50
2023-02-18T08:17:11.299Z,4.93
2023-02-18T08:19:38.044Z,4.85
2023-02-18T08:22:04.793Z,4.80
2023-02-18T08:24:31.563Z,5.15
2023-02-18T08:27:01.154Z,5.32
2023-02-18T08:29:29.115Z,5.15
2023-02-18T08:31:58.039Z,5.13
2023-02-18T08:34:25.173Z,4.88
2023-02-18T08:36:52.009Z,5.75
2023-02-18T08:39:18.890Z,5.63
2023-02-18T08:41:45.646Z,4.88
2023-02-18T08:44:12.369Z,5.22
2023-02-18T08:46:39.203Z,5.18
2023-02-18T08:49:06.600Z,4.63
2023-02-18T08:51:34.498Z,4.97
2023-02-18T08:54:02.061Z,4.88
2023-02-18T08:56:29.205Z,4.43
2023-02-18T08:58:55.958Z,4.03
2023-02-18T09:01:22.807Z,3.78
2023-02-18T09:03:49.705Z,4.28
2023-02-18T09:06:16.583Z,3.72
2023-02-18T09:08:43.551Z,3.85
2023-02-18T09:11:11.282Z,3.35
2023-02-18T09:13:38.477Z,4.00
2023-02-18T09:16:15.340Z,3.70
2023-02-18T09:18:42.205Z,3.30
2023-02-18T09:21:11.401Z,3.92
2023-02-18T09:23:38.777Z,3.75
2023-02-18T09:26:12.800Z,3.63
2023-02-18T09:28:40.056Z,3.40
2023-02-18T09:31:10.074Z,3.00
2023-02-18T09:33:41.617Z,3.22
2023-02-18T09:36:08.812Z,2.80
2023-02-18T09:38:35.963Z,2.90
2023-02-18T09:41:07.779Z,2.67
2023-02-18T09:43:37.313Z,3.10
2023-02-18T09:46:13.685Z,2.58
2023-02-18T09:48:42.651Z,2.60
2023-02-18T09:51:13.527Z,2.38
2023-02-18T09:53:45.106Z,2.40
2023-02-18T09:56:15.677Z,2.65
2023-02-18T09:58:44.008Z,2.28
2023-02-18T10:01:31.272Z,2.40
2023-02-18T10:04:02.226Z,2.92
2023-02-18T10:06:34.059Z,2.63
2023-02-18T10:09:05.040Z,2.65
2023-02-18T10:11:39.791Z,2.40
2023-02-18T10:14:11.806Z,2.70
2023-02-18T10:16:38.765Z,2.70
2023-02-18T10:19:21.434Z,2.30
2023-02-18T10:21:48.453Z,2.22
2023-02-18T10:24:27.155Z,2.28
2023-02-18T10:26:54.029Z,2.22
2023-02-18T10:29:22.141Z,2.05
2023-02-18T10:31:56.909Z,2.30
2023-02-18T10:34:30.423Z,2.10
2023-02-18T10:39:56.004Z,2.20
2023-02-18T10:42:37.581Z,2.33
2023-02-18T10:45:32.849Z,2.20
2023-02-18T10:48:13.065Z,1.85
2023-02-18T10:50:45.848Z,2.10
2023-02-18T10:53:29.340Z,2.30
2023-02-18T10:55:56.748Z,1.80
2023-02-18T10:58:33.888Z,2.13
2023-02-18T11:01:05.060Z,2.10
2023-02-18T11:03:47.688Z,2.00
2023-02-18T11:06:31.186Z,1.48
2023-02-18T11:08:59.000Z,1.88
2023-02-18T11:11:30.754Z,1.85
2023-02-18T11:14:00.616Z,2.10
2023-02-18T11:16:42.917Z,1.80
2023-02-18T11:19:36.333Z,1.90
2023-02-18T11:22:21.039Z,1.90
2023-02-18T11:24:48.637Z,1.95
2023-02-18T11:27:20.685Z,2.40
2023-02-18T11:29:54.015Z,2.13
2023-02-18T11:32:21.446Z,2.00
2023-02-18T11:34:50.357Z,1.80
2023-02-18T11:37:20.862Z,1.90
2023-02-18T11:39:51.789Z,1.92
2023-02-18T11:42:24.808Z,2.22
2023-02-18T11:44:56.905Z,1.95
2023-02-18T11:47:36.412Z,1.70
2023-02-18T11:50:09.204Z,1.90
2023-02-18T11:52:39.863Z,1.95
2023-02-18T11:55:16.067Z,1.80
2023-02-18T11:58:01.277Z,1.98
2023-02-18T12:00:46.165Z,1.98
2023-02-18T12:03:23.606Z,2.00
2023-02-18T12:05:50.626Z,2.20
2023-02-18T12:08:28.009Z,1.85
2023-02-18T12:11:07.144Z,2.15
2023-02-18T12:13:39.268Z,2.10
2023-02-18T12:16:27.307Z,2.10
2023-02-18T12:19:17.321Z,1.90
2023-02-18T12:21:49.882Z,1.80
2023-02-18T12:24:31.648Z,1.87
2023-02-18T12:27:12.383Z,1.83
2023-02-18T12:30:21.717Z,1.70
2023-02-18T12:33:18.423Z,1.92
2023-02-18T12:36:03.996Z,2.00
2023-02-18T12:38:33.732Z,1.95
2023-02-18T12:41:10.131Z,1.92
2023-02-18T12:43:52.907Z,1.50
2023-02-18T12:46:57.880Z,1.48
2023-02-18T12:49:56.935Z,1.85
2023-02-18T12:52:34.626Z,1.60
2023-02-18T12:55:23.715Z,1.80
2023-02-18T12:58:13.432Z,1.88
2023-02-18T13:00:58.245Z,1.65
2023-02-18T13:03:54.992Z,1.50
2023-02-18T13:06:49.501Z,1.42
2023-02-18T13:09:19.268Z,1.50
2023-02-18T13:12:09.444Z,1.70
2023-02-18T13:14:49.573Z,1.63
2023-02-18T13:17:19.589Z,1.90
2023-02-18T13:20:18.446Z,1.65
2023-02-18T13:22:49.952Z,1.80
2023-02-18T13:25:18.419Z,1.88
2023-02-18T13:28:05.147Z,1.70
2023-02-18T13:30:38.998Z,1.58
2023-02-18T13:33:22.785Z,1.40
2023-02-18T13:38:40.083Z,1.35
2023-02-18T13:41:07.387Z,1.35
2023-02-18T13:43:35.900Z,1.33
2023-02-18T13:46:22.154Z,1.38
2023-02-18T13:48:52.629Z,1.52
2023-02-18T13:51:37.217Z,1.40
2023-02-18T13:54:13.153Z,1.10
2023-02-18T13:57:24.213Z,1.23
2023-02-18T13:59:57.783Z,1.40
2023-02-18T14:02:27.308Z,1.50
2023-02-18T14:05:16.179Z,1.45
2023-02-18T14:07:50.511Z,1.45
2023-02-18T14:10:17.253Z,1.60
2023-02-18T14:13:20.308Z,1.48
2023-02-18T14:15:50.643Z,1.20
2023-02-18T14:18:34.342Z,1.55
2023-02-18T14:21:19.996Z,1.45
2023-02-18T14:24:01.932Z,1.45
2023-02-18T14:26:44.709Z,1.60
2023-02-18T14:29:19.159Z,1.50
2023-02-18T14:31:54.129Z,1.60
2023-02-18T14:34:24.098Z,1.65
2023-02-18T14:37:12.565Z,1.70
2023-02-18T14:40:16.577Z,1.77
2023-02-18T14:42:49.032Z,1.58
2023-02-18T14:45:37.439Z,1.83
2023-02-18T14:48:42.658Z,1.73
2023-02-18T14:51:10.544Z,1.63
2023-02-18T14:53:44.291Z,1.50
2023-02-18T14:56:14.719Z,1.60
2023-02-18T14:59:03.244Z,1.63
2023-02-18T15:01:35.649Z,1.58
2023-02-18T15:04:04.217Z,1.48
2023-02-18T15:06:32.325Z,1.40
2023-02-18T15:09:00.448Z,1.50
2023-02-18T15:11:37.966Z,1.38
2023-02-18T15:14:19.962Z,1.45
2023-02-18T15:16:48.630Z,1.75
2023-02-18T15:19:48.494Z,1.60
2023-02-18T15:22:26.634Z,1.52
2023-02-18T15:24:56.801Z,1.20
2023-02-18T15:27:29.507Z,1.70
2023-02-18T15:30:30.779Z,1.60
2023-02-18T15:33:00.105Z,1.65
2023-02-18T15:35:33.015Z,1.40
2023-02-18T15:38:01.157Z,1.60
2023-02-18T15:40:32.101Z,1.80
2023-02-18T15:43:05.337Z,1.67
2023-02-18T15:45:34.612Z,1.65
2023-02-18T15:48:02.059Z,1.60
2023-02-18T15:50:49.592Z,1.70
2023-02-18T15:53:18.516Z,1.92
2023-02-18T15:55:49.253Z,1.70
2023-02-18T15:58:32.657Z,1.80
2023-02-18T16:01:02.108Z,1.90
2023-02-18T16:03:39.470Z,1.92
2023-02-18T16:06:22.825Z,1.77
2023-02-18T16:09:15.000Z,2.10
2023-02-18T16:11:45.060Z,2.45
2023-02-18T16:14:28.515Z,1.92
2023-02-18T16:17:06.894Z,2.20
2023-02-18T16:19:34.552Z,1.98
2023-02-18T16:22:06.474Z,2.00
2023-02-18T16:24:41.039Z,1.70
2023-02-18T16:27:16.165Z,2.13
2023-02-18T16:29:43.990Z,2.40
2023-02-18T16:32:10.929Z,1.88
2023-02-18T16:34:38.371Z,2.10
2023-02-18T16:37:23.789Z,2.10
2023-02-18T16:39:54.809Z,2.10
2023-02-18T16:42:21.934Z,1.75
2023-02-18T16:44:50.489Z,2.28
2023-02-18T16:47:18.339Z,2.30
2023-02-18T16:49:47.411Z,2.30
2023-02-18T16:52:17.031Z,2.60
2023-02-18T16:54:44.089Z,2.25
2023-02-18T16:57:11.531Z,2.53
2023-02-18T16:59:39.280Z,2.45
2023-02-18T17:02:17.273Z,2.20
2023-02-18T17:04:44.039Z,2.30
2023-02-18T17:07:11.448Z,2.25
2023-02-18T17:09:38.237Z,2.60
2023-02-18T17:12:05.465Z,2.75
2023-02-18T17:14:32.286Z,2.80
2023-02-18T17:17:01.904Z,2.70
2023-02-18T17:19:28.913Z,2.80
2023-02-18T17:21:55.794Z,2.65
2023-02-18T17:24:22.822Z,3.25
2023-02-18T17:26:49.639Z,3.22
2023-02-18T17:29:16.382Z,3.17
2023-02-18T17:31:47.080Z,3.08
2023-02-18T17:34:20.230Z,3.25
2023-02-18T17:36:47.189Z,2.80
2023-02-18T17:39:15.826Z,3.05
2023-02-18T17:41:43.261Z,2.90
2023-02-18T17:44:21.196Z,3.20
2023-02-18T17:46:51.441Z,2.90
2023-02-18T17:49:18.710Z,3.25
2023-02-18T17:51:45.979Z,3.80
2023-02-18T17:54:14.552Z,2.78
2023-02-18T17:56:42.169Z,3.30
2023-02-18T17:59:08.985Z,3.25
2023-02-18T18:01:36.197Z,3.83
2023-02-18T18:04:03.398Z,3.47
2023-02-18T18:06:30.345Z,3.22
2023-02-18T18:08:57.331Z,3.63
2023-02-18T18:11:25.310Z,3.40
2023-02-18T18:13:55.416Z,3.47
2023-02-18T18:16:22.321Z,3.35
2023-02-18T18:18:49.264Z,3.22
2023-02-18T18:21:30.947Z,3.40
2023-02-18T18:23:58.202Z,3.15
2023-02-18T18:26:25.080Z,3.47
2023-02-18T18:28:53.365Z,3.67
2023-02-18T18:31:21.048Z,3.90
2023-02-18T18:33:51.478Z,3.63
2023-02-18T18:36:19.846Z,3.90
2023-02-18T18:38:47.070Z,3.60
2023-02-18T18:41:19.820Z,3.85
2023-02-18T18:43:46.898Z,3.63
2023-02-18T18:46:14.089Z,3.60
2023-02-18T18:48:41.057Z,3.72
2023-02-18T18:51:10.349Z,3.95
2023-02-18T18:53:37.407Z,3.40
2023-02-18T18:56:06.767Z,3.60
2023-02-18T18:58:33.842Z,3.85
2023-02-18T19:01:06.787Z,3.53
2023-02-18T19:03:35.337Z,3.35
2023-02-18T19:06:02.452Z,3.35
2023-02-18T19:08:31.784Z,3.85
2023-02-18T19:10:58.688Z,3.90
2023-02-18T19:13:31.169Z,4.00
2023-02-18T19:16:27.435Z,4.10
2023-02-18T19:18:54.364Z,4.30
2023-02-18T19:21:21.130Z,3.90
2023-02-18T19:23:48.029Z,3.75
2023-02-18T19:26:16.560Z,3.55
2023-02-18T19:28:44.464Z,4.13
2023-02-18T19:31:11.844Z,4.00
2023-02-18T19:33:39.439Z,4.32
2023-02-18T19:36:08.827Z,3.85
2023-02-18T19:38:35.861Z,4.15
2023-02-18T19:41:14.248Z,3.70
2023-02-18T19:43:42.700Z,3.75
2023-02-18T19:46:15.439Z,3.95
2023-02-18T19:48:42.604Z,4.28
2023-02-18T19:51:10.135Z,4.18
2023-02-18T19:53:37.420Z,3.70
2023-02-18T19:56:07.281Z,3.63
2023-02-18T19:58:34.905Z,4.22
2023-02-18T20:01:01.876Z,3.80
2023-02-18T20:03:29.451Z,3.90
2023-02-18T20:05:56.185Z,3.78
2023-02-18T20:08:22.942Z,3.55
2023-02-18T20:10:57.478Z,3.50
2023-02-18T20:13:24.220Z,3.72
2023-02-18T20:15:51.062Z,3.47
2023-02-18T20:18:17.805Z,3.85
2023-02-18T20:20:51.196Z,3.53
2023-02-18T20:25:47.503Z,3.78
2023-02-18T20:28:14.781Z,3.55
2023-02-18T20:30:41.550Z,4.00
2023-02-18T20:33:08.296Z,3.75
2023-02-18T20:35:35.057Z,4.15
2023-02-18T20:38:01.837Z,3.85
2023-02-18T20:40:28.756Z,4.28
2023-02-18T20:42:55.623Z,4.10
2023-02-18T20:45:22.361Z,3.80
2023-02-18T20:47:49.185Z,4.63
2023-02-18T20:50:16.107Z,4.25
2023-02-18T20:52:42.910Z,4.13
2023-02-18T20:55:09.637Z,4.40
2023-02-18T20:57:36.454Z,4.50
2023-02-18T21:00:04.312Z,4.80
2023-02-18T21:02:32.026Z,4.13
2023-02-18T21:04:58.835Z,4.47
2023-02-18T21:07:25.545Z,4.50
2023-02-18T21:09:52.305Z,4.15
2023-02-18T21:12:19.055Z,4.00
2023-02-18T21:14:45.936Z,4.38
2023-02-18T21:17:12.650Z,4.35
2023-02-18T21:19:39.407Z,4.20
2023-02-18T21:22:06.131Z,4.30
2023-02-18T21:24:32.937Z,4.20
2023-02-18T21:26:59.639Z,4.15
2023-02-18T21:29:28.067Z,4.25
2023-02-18T21:31:55.069Z,4.38
2023-02-18T21:34:22.725Z,4.57
2023-02-18T21:36:49.562Z,4.00
2023-02-18T21:39:16.348Z,4.30
2023-02-18T21:41:43.123Z,4.47
2023-02-18T21:44:10.097Z,4.22
2023-02-18T21:46:37.446Z,4.18
2023-02-18T21:49:12.422Z,4.07
2023-02-18T21:51:56.848Z,4.45
2023-02-18T21:54:32.655Z,4.63
2023-02-18T21:57:00.889Z,4.82
2023-02-18T21:59:29.661Z,4.90
2023-02-18T22:01:59.672Z,4.88
2023-02-18T22:04:28.453Z,4.90
2023-02-18T22:06:55.296Z,4.70
2023-02-18T22:09:23.309Z,4.90
2023-02-18T22:11:50.320Z,4.60
2023-02-18T22:14:17.190Z,4.97
2023-02-18T22:16:44.235Z,5.05
2023-02-18T22:19:12.790Z,5.50
2023-02-18T22:21:40.034Z,5.00
2023-02-18T22:24:07.808Z,4.97
2023-02-18T22:26:34.912Z,5.00
2023-02-18T22:29:01.935Z,5.25
2023-02-18T22:31:30.598Z,5.45
2023-02-18T22:33:58.825Z,5.85
2023-02-18T22:36:27.627Z,5.88
2023-02-18T22:38:55.003Z,5.38
2023-02-18T22:41:23.405Z,5.00
2023-02-18T22:43:54.840Z,5.20
2023-02-18T22:46:22.086Z,4.85
2023-02-18T22:48:48.807Z,4.90
2023-02-18T22:51:18.585Z,4.47
2023-02-18T22:53:46.083Z,4.95
2023-02-18T22:56:15.609Z,5.05
2023-02-18T22:58:43.307Z,4.28
2023-02-18T23:01:34.639Z,4.85
2023-02-18T23:04:07.598Z,4.88
2023-02-18T23:06:35.592Z,4.47
2023-02-18T23:09:02.460Z,4.65
2023-02-18T23:11:29.411Z,4.60
2023-02-18T23:14:15.232Z,4.13
2023-02-18T23:17:00.749Z,4.72
2023-02-18T23:19:30.480Z,4.60
2023-02-18T23:21:57.441Z,4.93
2023-02-18T23:24:24.697Z,4.95
2023-02-18T23:26:51.743Z,4.93
2023-02-18T23:29:18.635Z,4.45
2023-02-18T23:31:45.609Z,4.60
2023-02-18T23:34:14.676Z,4.65
2023-02-18T23:36:42.954Z,4.60
2023-02-18T23:39:13.316Z,4.82
2023-02-18T23:41:40.274Z,4.50
2023-02-18T23:44:10.594Z,4.53
2023-02-18T23:46:38.195Z,4.82
2023-02-18T23:49:05.158Z,4.43
2023-02-18T23:51:32.206Z,4.53
2023-02-18T23:54:01.506Z,4.20
2023-02-18T23:56:28.653Z,4.00
2023-02-18T23:58:58.158Z,4.28
